createdAt,value
2019-05-20T00:00:57.947Z,72
2019-05-20T00:01:57.960Z,72
2019-05-20T00:02:58.002Z,72
2019-05-20T00:03:58.017Z,72
2019-05-20T00:04:58.054Z,72
2019-05-20T00:05:58.101Z,72
2019-05-20T00:06:58.063Z,71
2019-05-20T00:07:58.092Z,71
2019-05-20T00:08:58.082Z,71
2019-05-20T00:09:58.143Z,71
2019-05-20T00:10:58.150Z,71
2019-05-20T00:11:58.132Z,71
2019-05-20T00:12:58.147Z,71
2019-05-20T00:13:58.163Z,72
2019-05-20T00:14:58.195Z,72
2019-05-20T00:15:58.187Z,71
2019-05-20T00:16:58.196Z,71
2019-05-20T00:17:58.240Z,70
2019-05-20T00:18:58.222Z,70
2019-05-20T00:19:58.222Z,71
2019-05-20T00:20:58.233Z,72
2019-05-20T00:21:58.285Z,72
2019-05-20T00:22:58.266Z,72
2019-05-20T00:23:58.240Z,72
2019-05-20T00:24:58.243Z,72
2019-05-20T00:25:58.244Z,72
2019-05-20T00:26:58.258Z,72
2019-05-20T00:27:58.275Z,72
2019-05-20T00:28:58.312Z,72
2019-05-20T00:29:58.344Z,72
2019-05-20T00:30:58.425Z,72
2019-05-20T00:31:58.496Z,72
2019-05-20T00:32:58.523Z,72
2019-05-20T00:33:58.532Z,73
2019-05-20T00:34:58.567Z,73
2019-05-20T00:35:58.611Z,73
2019-05-20T00:36:58.607Z,73
2019-05-20T00:37:58.681Z,73
2019-05-20T00:38:58.755Z,72
2019-05-20T00:39:58.804Z,73
2019-05-20T00:40:58.782Z,73
2019-05-20T00:41:58.856Z,73
2019-05-20T00:42:58.933Z,73
2019-05-20T00:43:58.933Z,73
2019-05-20T00:44:58.939Z,73
2019-05-20T00:45:58.963Z,74
2019-05-20T00:46:59.026Z,73
2019-05-20T00:47:59.067Z,74
2019-05-20T00:48:59.165Z,73
2019-05-20T00:49:59.161Z,73
2019-05-20T00:50:59.176Z,73
2019-05-20T00:51:59.236Z,73
2019-05-20T00:52:59.269Z,74
2019-05-20T00:53:59.349Z,74
2019-05-20T00:54:59.377Z,74
2019-05-20T00:55:59.441Z,74
2019-05-20T00:56:59.465Z,74
2019-05-20T00:57:59.526Z,74
2019-05-20T00:58:59.523Z,74
2019-05-20T00:59:59.615Z,74
2019-05-20T01:00:59.588Z,74
2019-05-20T01:01:59.613Z,73
2019-05-20T01:02:59.636Z,73
2019-05-20T01:03:59.638Z,73
2019-05-20T01:04:59.643Z,72
2019-05-20T01:05:59.695Z,73
2019-05-20T01:06:59.757Z,74
2019-05-20T01:07:59.788Z,74
2019-05-20T01:08:59.785Z,74
2019-05-20T01:09:59.850Z,74
2019-05-20T01:10:59.870Z,74
2019-05-20T01:11:59.920Z,74
2019-05-20T01:12:59.922Z,74
2019-05-20T01:13:59.930Z,74
2019-05-20T01:14:59.934Z,74
2019-05-20T01:15:59.974Z,74
2019-05-20T01:16:59.971Z,74
2019-05-20T01:17:59.995Z,74
2019-05-20T01:19:00.069Z,74
2019-05-20T01:20:00.116Z,74
2019-05-20T01:21:02.879Z,75
2019-05-20T01:22:00.175Z,75
2019-05-20T01:23:00.170Z,75
2019-05-20T01:24:00.221Z,75
2019-05-20T01:25:00.211Z,75
2019-05-20T01:26:00.229Z,75
2019-05-20T01:27:00.329Z,75
2019-05-20T01:28:00.330Z,75
2019-05-20T01:29:00.374Z,75
2019-05-20T01:30:00.379Z,76
2019-05-20T01:31:00.378Z,76
2019-05-20T01:32:00.396Z,77
2019-05-20T01:33:12.676Z,75
2019-05-20T01:34:00.503Z,74
2019-05-20T01:35:00.480Z,74
2019-05-20T01:36:00.502Z,75
2019-05-20T01:37:00.518Z,75
2019-05-20T01:38:00.564Z,75
2019-05-20T01:39:00.559Z,76
2019-05-20T01:40:00.622Z,76
2019-05-20T01:41:00.600Z,76
2019-05-20T01:42:00.853Z,76
2019-05-20T01:43:00.643Z,77
2019-05-20T01:44:00.660Z,76
2019-05-20T01:45:00.712Z,75
2019-05-20T01:46:00.693Z,74
2019-05-20T01:47:00.743Z,74
2019-05-20T01:48:00.755Z,74
2019-05-20T01:49:00.775Z,75
2019-05-20T01:50:00.781Z,75
2019-05-20T01:51:00.793Z,75
2019-05-20T01:52:00.951Z,76
2019-05-20T01:53:00.825Z,76
2019-05-20T01:54:00.826Z,76
2019-05-20T01:55:00.876Z,76
2019-05-20T01:56:00.888Z,76
2019-05-20T01:57:00.881Z,76
2019-05-20T01:58:00.901Z,76
2019-05-20T01:59:00.920Z,75
2019-05-20T02:00:00.959Z,76
2019-05-20T02:01:00.927Z,76
2019-05-20T02:02:00.938Z,76
2019-05-20T02:03:00.951Z,76
2019-05-20T02:04:00.942Z,76
2019-05-20T02:05:00.971Z,75
2019-05-20T02:06:00.953Z,75
2019-05-20T02:07:00.960Z,76
2019-05-20T02:08:00.965Z,76
2019-05-20T02:09:00.965Z,76
2019-05-20T02:10:00.999Z,76
2019-05-20T02:11:00.979Z,76
2019-05-20T02:12:00.996Z,76
2019-05-20T02:13:01.031Z,76
2019-05-20T02:14:01.193Z,76
2019-05-20T02:15:01.300Z,76
2019-05-20T02:16:01.211Z,76
2019-05-20T02:17:02.734Z,77
2019-05-20T02:18:01.300Z,77
2019-05-20T02:19:01.296Z,76
2019-05-20T02:20:01.339Z,77
2019-05-20T02:21:01.369Z,77
2019-05-20T02:22:01.763Z,77
2019-05-20T02:23:01.511Z,77
2019-05-20T02:24:01.550Z,77
2019-05-20T02:25:01.588Z,77
2019-05-20T02:26:01.654Z,77
2019-05-20T02:27:01.617Z,78
2019-05-20T02:28:01.693Z,78
2019-05-20T02:29:01.706Z,78
2019-05-20T02:30:01.771Z,78
2019-05-20T02:31:01.820Z,78
2019-05-20T02:32:01.858Z,78
2019-05-20T02:33:01.868Z,78
2019-05-20T02:34:01.933Z,78
2019-05-20T02:35:02.006Z,78
2019-05-20T02:36:02.039Z,78
2019-05-20T02:37:02.059Z,78
2019-05-20T02:38:02.077Z,79
2019-05-20T02:39:02.166Z,78
2019-05-20T02:40:02.184Z,78
2019-05-20T02:41:02.214Z,78
2019-05-20T02:42:02.322Z,78
2019-05-20T02:43:02.289Z,78
2019-05-20T02:44:02.264Z,77
2019-05-20T02:45:02.334Z,77
2019-05-20T02:46:02.373Z,77
2019-05-20T02:47:02.405Z,77
2019-05-20T02:48:02.483Z,77
2019-05-20T02:49:02.526Z,77
2019-05-20T02:50:02.576Z,77
2019-05-20T02:51:02.619Z,76
2019-05-20T02:52:02.660Z,76
2019-05-20T02:53:02.744Z,76
2019-05-20T02:54:02.810Z,76
2019-05-20T02:55:02.769Z,77
2019-05-20T02:56:02.833Z,77
2019-05-20T02:57:02.875Z,77
2019-05-20T02:58:02.902Z,77
2019-05-20T02:59:02.894Z,77
2019-05-20T03:00:02.881Z,77
2019-05-20T03:01:02.892Z,77
2019-05-20T03:02:02.937Z,78
2019-05-20T03:03:02.965Z,77
2019-05-20T03:04:11.307Z,78
2019-05-20T03:05:03.041Z,78
2019-05-20T03:06:03.077Z,78
2019-05-20T03:07:03.121Z,79
2019-05-20T03:08:03.183Z,78
2019-05-20T03:09:03.188Z,78
2019-05-20T03:10:03.240Z,78
2019-05-20T03:11:03.266Z,78
2019-05-20T03:12:03.348Z,77
2019-05-20T03:13:03.336Z,77
2019-05-20T03:14:03.385Z,77
2019-05-20T03:15:03.432Z,77
2019-05-20T03:16:05.934Z,78
2019-05-20T03:17:03.728Z,78
2019-05-20T03:18:03.553Z,78
2019-05-20T03:19:06.042Z,78
2019-05-20T03:20:03.610Z,78
2019-05-20T03:21:03.637Z,79
2019-05-20T03:22:03.639Z,79
2019-05-20T03:23:03.667Z,80
2019-05-20T03:24:03.722Z,80
2019-05-20T03:25:03.744Z,80
2019-05-20T03:26:03.741Z,81
2019-05-20T03:27:03.756Z,80
2019-05-20T03:28:03.779Z,80
2019-05-20T03:29:03.858Z,80
2019-05-20T03:30:03.911Z,80
2019-05-20T03:31:03.881Z,80
2019-05-20T03:32:03.915Z,80
2019-05-20T03:33:03.943Z,80
2019-05-20T03:34:03.992Z,80
2019-05-20T03:35:03.977Z,80
2019-05-20T03:36:04.011Z,80
2019-05-20T03:37:03.997Z,81
2019-05-20T03:38:04.026Z,81
2019-05-20T03:39:04.044Z,81
2019-05-20T03:40:04.081Z,80
2019-05-20T03:41:04.084Z,80
2019-05-20T03:42:04.095Z,80
2019-05-20T03:43:04.146Z,80
2019-05-20T03:44:04.160Z,80
2019-05-20T03:45:04.171Z,80
2019-05-20T03:46:04.596Z,80
2019-05-20T03:47:04.231Z,79
2019-05-20T03:48:04.248Z,79
2019-05-20T03:49:06.490Z,80
2019-05-20T03:50:04.213Z,79
2019-05-20T03:51:04.265Z,79
2019-05-20T03:52:04.253Z,80
2019-05-20T03:53:04.260Z,80
2019-05-20T03:54:04.285Z,80
2019-05-20T03:55:04.270Z,80
2019-05-20T03:56:04.323Z,80
2019-05-20T03:57:04.294Z,80
2019-05-20T03:58:04.306Z,80
2019-05-20T03:59:04.322Z,81
2019-05-20T04:00:04.333Z,81
2019-05-20T04:01:04.380Z,81
2019-05-20T04:02:04.322Z,82
2019-05-20T04:03:04.338Z,82
2019-05-20T04:04:04.331Z,82
2019-05-20T04:05:04.332Z,82
2019-05-20T04:06:04.348Z,82
2019-05-20T04:07:04.462Z,82
2019-05-20T04:08:04.434Z,82
2019-05-20T04:09:04.409Z,82
2019-05-20T04:10:04.509Z,83
2019-05-20T04:11:04.516Z,83
2019-05-20T04:12:04.576Z,83
2019-05-20T04:13:04.584Z,83
2019-05-20T04:14:04.568Z,82
2019-05-20T04:15:04.651Z,83
2019-05-20T04:16:04.657Z,82
2019-05-20T04:17:04.745Z,82
2019-05-20T04:18:04.726Z,82
2019-05-20T04:19:04.745Z,81
2019-05-20T04:20:04.804Z,81
2019-05-20T04:21:04.871Z,81
2019-05-20T04:22:04.944Z,81
2019-05-20T04:23:04.976Z,81
2019-05-20T04:24:05.053Z,81
2019-05-20T04:25:05.001Z,81
2019-05-20T04:26:05.036Z,81
2019-05-20T04:27:05.063Z,81
2019-05-20T04:28:05.138Z,81
2019-05-20T04:29:05.200Z,81
2019-05-20T04:30:05.192Z,81
2019-05-20T04:31:05.217Z,81
2019-05-20T04:32:05.284Z,81
2019-05-20T04:33:05.333Z,81
2019-05-20T04:34:05.388Z,81
2019-05-20T04:35:20.364Z,81
2019-05-20T04:36:05.458Z,81
2019-05-20T04:37:05.472Z,81
2019-05-20T04:38:05.526Z,81
2019-05-20T04:39:05.535Z,80
2019-05-20T04:40:05.552Z,80
2019-05-20T04:41:05.650Z,80
2019-05-20T04:42:06.816Z,80
2019-05-20T04:43:05.691Z,81
2019-05-20T04:44:05.723Z,81
2019-05-20T04:45:05.760Z,81
2019-05-20T04:46:05.798Z,82
2019-05-20T04:47:05.878Z,82
2019-05-20T04:48:05.916Z,82
2019-05-20T04:49:05.974Z,82
2019-05-20T04:50:05.978Z,81
2019-05-20T04:51:06.022Z,82
2019-05-20T04:52:06.083Z,82
2019-05-20T04:53:06.130Z,82
2019-05-20T04:54:06.152Z,81
2019-05-20T04:55:06.198Z,82
2019-05-20T04:56:06.247Z,82
2019-05-20T04:57:06.294Z,80
2019-05-20T04:58:06.383Z,81
2019-05-20T04:59:06.389Z,81
2019-05-20T05:00:06.392Z,79
2019-05-20T05:01:06.444Z,79
2019-05-20T05:02:06.473Z,79
2019-05-20T05:03:06.525Z,78
2019-05-20T05:04:06.557Z,79
2019-05-20T05:05:06.655Z,79
2019-05-20T05:06:06.608Z,79
2019-05-20T05:07:06.594Z,78
2019-05-20T05:08:06.636Z,78
2019-05-20T05:09:06.739Z,78
2019-05-20T05:10:06.741Z,78
2019-05-20T05:11:06.775Z,79
2019-05-20T05:12:06.784Z,78
2019-05-20T05:13:06.842Z,77
2019-05-20T05:14:06.914Z,77
2019-05-20T05:15:07.965Z,77
2019-05-20T05:16:06.937Z,77
2019-05-20T05:17:06.964Z,78
2019-05-20T05:18:06.998Z,79
2019-05-20T05:19:07.072Z,79
2019-05-20T05:20:07.062Z,79
2019-05-20T05:21:07.103Z,80
2019-05-20T05:22:07.137Z,80
2019-05-20T05:23:07.171Z,80
2019-05-20T05:24:07.406Z,80
2019-05-20T05:25:07.194Z,79
2019-05-20T05:26:07.220Z,79
2019-05-20T05:27:07.269Z,78
2019-05-20T05:28:07.279Z,77
2019-05-20T05:29:07.322Z,76
2019-05-20T05:30:07.320Z,76
2019-05-20T05:31:07.322Z,77
2019-05-20T05:32:07.391Z,77
2019-05-20T05:33:07.363Z,77
2019-05-20T05:34:07.402Z,76
2019-05-20T05:35:07.406Z,76
2019-05-20T05:36:07.412Z,77
2019-05-20T05:37:07.461Z,77
2019-05-20T05:38:07.463Z,79
2019-05-20T05:39:07.477Z,78
2019-05-20T05:40:08.266Z,79
2019-05-20T05:41:07.463Z,78
2019-05-20T05:42:07.503Z,78
2019-05-20T05:43:07.486Z,78
2019-05-20T05:44:07.510Z,78
2019-05-20T05:45:07.514Z,77
2019-05-20T05:46:07.533Z,77
2019-05-20T05:47:07.557Z,77
2019-05-20T05:48:07.523Z,78
2019-05-20T05:49:07.532Z,77
2019-05-20T05:50:07.530Z,77
2019-05-20T05:51:07.543Z,77
2019-05-20T05:52:07.579Z,76
2019-05-20T05:53:07.547Z,75
2019-05-20T05:54:07.565Z,75
2019-05-20T05:55:07.572Z,76
2019-05-20T05:56:07.598Z,75
2019-05-20T05:57:07.567Z,75
2019-05-20T05:58:08.648Z,74
2019-05-20T05:59:07.760Z,73
2019-05-20T06:00:07.744Z,74
2019-05-20T06:01:07.813Z,75
2019-05-20T06:02:07.853Z,76
2019-05-20T06:03:07.861Z,76
2019-05-20T06:04:07.960Z,75
2019-05-20T06:05:07.966Z,73
2019-05-20T06:06:12.449Z,73
2019-05-20T06:07:08.086Z,73
2019-05-20T06:08:08.106Z,73
2019-05-20T06:09:08.158Z,74
2019-05-20T06:10:08.190Z,74
2019-05-20T06:11:08.255Z,73
2019-05-20T06:12:08.333Z,74
2019-05-20T06:13:08.334Z,74
2019-05-20T06:14:08.381Z,74
2019-05-20T06:15:08.419Z,72
2019-05-20T06:16:08.469Z,72
2019-05-20T06:17:08.567Z,73
2019-05-20T06:18:08.560Z,73
2019-05-20T06:19:08.631Z,74
2019-05-20T06:20:08.650Z,74
2019-05-20T06:21:08.709Z,73
2019-05-20T06:22:08.786Z,73
2019-05-20T06:23:08.832Z,74
2019-05-20T06:24:08.865Z,74
2019-05-20T06:25:08.964Z,73
2019-05-20T06:26:09.010Z,74
2019-05-20T06:27:09.028Z,75
2019-05-20T06:28:09.060Z,75
2019-05-20T06:29:09.092Z,74
2019-05-20T06:30:09.252Z,75
2019-05-20T06:31:09.190Z,75
2019-05-20T06:32:09.247Z,77
2019-05-20T06:33:09.252Z,77
2019-05-20T06:34:09.294Z,77
2019-05-20T06:35:09.414Z,75
2019-05-20T06:36:09.366Z,74
2019-05-20T06:37:09.383Z,73
2019-05-20T06:38:09.433Z,72
2019-05-20T06:39:09.466Z,71
2019-05-20T06:40:09.566Z,70
2019-05-20T06:41:09.586Z,69
2019-05-20T06:42:09.620Z,70
2019-05-20T06:43:09.715Z,71
2019-05-20T06:44:09.708Z,72
2019-05-20T06:45:09.778Z,73
2019-05-20T06:46:09.789Z,74
2019-05-20T06:47:09.810Z,74
2019-05-20T06:48:09.887Z,74
2019-05-20T06:49:09.898Z,73
2019-05-20T06:50:09.938Z,72
2019-05-20T06:51:09.984Z,71
2019-05-20T06:52:10.273Z,73
2019-05-20T06:53:10.100Z,72
2019-05-20T06:54:10.108Z,71
2019-05-20T06:55:10.161Z,70
2019-05-20T06:56:10.232Z,70
2019-05-20T06:57:10.294Z,69
2019-05-20T06:58:11.515Z,68
2019-05-20T06:59:10.284Z,69
2019-05-20T07:00:10.330Z,68
2019-05-20T07:01:10.372Z,68
2019-05-20T07:02:10.423Z,68
2019-05-20T07:03:10.490Z,67
2019-05-20T07:04:10.483Z,70
2019-05-20T07:05:10.499Z,71
2019-05-20T07:06:10.522Z,71
2019-05-20T07:07:20.224Z,69
2019-05-20T07:08:10.623Z,67
2019-05-20T07:09:10.649Z,66
2019-05-20T07:10:10.635Z,66
2019-05-20T07:11:10.675Z,66
2019-05-20T07:12:10.685Z,67
2019-05-20T07:13:10.712Z,68
2019-05-20T07:14:10.688Z,63
2019-05-20T07:15:10.748Z,64
2019-05-20T07:16:10.745Z,64
2019-05-20T07:17:10.796Z,65
2019-05-20T07:18:10.871Z,64
2019-05-20T07:19:10.845Z,63
2019-05-20T07:20:10.873Z,61
2019-05-20T07:21:10.971Z,62
2019-05-20T07:22:10.927Z,62
2019-05-20T07:23:10.931Z,63
2019-05-20T07:24:11.110Z,62
2019-05-20T07:25:10.969Z,61
2019-05-20T07:26:11.021Z,61
2019-05-20T07:27:11.100Z,62
2019-05-20T07:28:11.045Z,62
2019-05-20T07:29:11.036Z,61
2019-05-20T07:30:14.873Z,61
2019-05-20T07:31:11.106Z,60
2019-05-20T07:32:11.108Z,60
2019-05-20T07:33:11.123Z,60
2019-05-20T07:34:11.130Z,61
2019-05-20T07:35:26.248Z,58
2019-05-20T07:36:11.162Z,59
2019-05-20T07:37:11.173Z,58
2019-05-20T07:38:11.179Z,58
2019-05-20T07:39:11.363Z,58
2019-05-20T07:40:11.206Z,58
2019-05-20T07:41:11.258Z,58
2019-05-20T07:42:11.225Z,59
2019-05-20T07:43:11.238Z,58
2019-05-20T07:44:11.267Z,58
2019-05-20T07:45:11.261Z,58
2019-05-20T07:46:11.291Z,58
2019-05-20T07:47:11.392Z,58
2019-05-20T07:48:11.282Z,57
2019-05-20T07:49:12.024Z,57
2019-05-20T07:50:11.274Z,58
2019-05-20T07:51:11.343Z,58
2019-05-20T07:52:11.410Z,58
2019-05-20T07:53:11.331Z,58
2019-05-20T07:54:11.341Z,59
2019-05-20T07:55:11.317Z,60
2019-05-20T07:56:11.363Z,60
2019-05-20T07:57:11.408Z,58
2019-05-20T07:58:11.484Z,59
2019-05-20T07:59:11.501Z,58
2019-05-20T08:00:11.561Z,59
2019-05-20T08:01:12.130Z,58
2019-05-20T08:02:13.910Z,57
2019-05-20T08:03:11.737Z,57
2019-05-20T08:04:11.776Z,57
2019-05-20T08:05:11.870Z,57
2019-05-20T08:06:11.900Z,57
2019-05-20T08:07:27.144Z,57
2019-05-20T08:08:13.118Z,57
2019-05-20T08:09:12.085Z,57
2019-05-20T08:10:12.053Z,58
2019-05-20T08:11:12.130Z,58
2019-05-20T08:12:12.194Z,58
2019-05-20T08:13:12.235Z,57
2019-05-20T08:14:12.305Z,57
2019-05-20T08:15:12.302Z,59
2019-05-20T08:16:12.331Z,60
2019-05-20T08:17:27.748Z,61
2019-05-20T08:18:12.442Z,60
2019-05-20T08:19:12.494Z,57
2019-05-20T08:20:12.538Z,57
2019-05-20T08:21:12.579Z,56
2019-05-20T08:22:12.574Z,58
2019-05-20T08:23:12.639Z,58
2019-05-20T08:24:12.741Z,59
2019-05-20T08:25:12.725Z,58
2019-05-20T08:26:12.810Z,59
2019-05-20T08:27:12.812Z,60
2019-05-20T08:28:12.871Z,59
2019-05-20T08:29:13.028Z,58
2019-05-20T08:30:14.094Z,57
2019-05-20T08:31:12.998Z,60
2019-05-20T08:32:13.051Z,61
2019-05-20T08:33:13.074Z,61
2019-05-20T08:34:13.101Z,61
2019-05-20T08:35:13.155Z,61
2019-05-20T08:36:13.216Z,60
2019-05-20T08:37:13.360Z,61
2019-05-20T08:38:13.288Z,60
2019-05-20T08:39:15.567Z,59
2019-05-20T08:40:13.376Z,62
2019-05-20T08:41:13.408Z,61
2019-05-20T08:42:13.421Z,63
2019-05-20T08:43:13.430Z,63
2019-05-20T08:44:13.484Z,62
2019-05-20T08:45:13.528Z,62
2019-05-20T08:46:13.528Z,62
2019-05-20T08:47:13.597Z,62
2019-05-20T08:48:13.625Z,62
2019-05-20T08:49:13.665Z,61
2019-05-20T08:50:16.062Z,62
2019-05-20T08:51:13.735Z,61
2019-05-20T08:52:13.862Z,59
2019-05-20T08:53:13.801Z,60
2019-05-20T08:54:13.863Z,61
2019-05-20T08:55:13.852Z,62
2019-05-20T08:56:13.913Z,63
2019-05-20T08:57:14.011Z,63
2019-05-20T08:58:13.951Z,64
2019-05-20T08:59:14.026Z,62
2019-05-20T09:00:14.022Z,61
2019-05-20T09:01:14.038Z,61
2019-05-20T09:02:14.099Z,61
2019-05-20T09:03:14.093Z,62
2019-05-20T09:04:14.111Z,61
2019-05-20T09:05:14.141Z,61
2019-05-20T09:06:14.143Z,61
2019-05-20T09:07:14.188Z,62
2019-05-20T09:08:14.186Z,62
2019-05-20T09:09:14.210Z,63
2019-05-20T09:10:14.266Z,62
2019-05-20T09:11:16.770Z,61
2019-05-20T09:12:14.294Z,60
2019-05-20T09:13:14.280Z,61
2019-05-20T09:14:14.287Z,61
2019-05-20T09:15:14.325Z,62
2019-05-20T09:16:14.329Z,62
2019-05-20T09:17:14.386Z,62
2019-05-20T09:18:14.360Z,62
2019-05-20T09:19:16.865Z,64
2019-05-20T09:20:14.420Z,64
2019-05-20T09:21:14.466Z,64
2019-05-20T09:22:14.426Z,63
2019-05-20T09:23:14.417Z,64
2019-05-20T09:24:18.110Z,64
2019-05-20T09:25:14.698Z,65
2019-05-20T09:26:14.444Z,65
2019-05-20T09:27:14.495Z,66
2019-05-20T09:28:14.441Z,66
2019-05-20T09:29:14.465Z,66
2019-05-20T09:30:14.491Z,64
2019-05-20T09:31:14.683Z,66
2019-05-20T09:32:14.488Z,66
2019-05-20T09:33:14.532Z,64
2019-05-20T09:34:14.494Z,65
2019-05-20T09:35:14.473Z,65
2019-05-20T09:36:14.453Z,64
2019-05-20T09:37:14.545Z,65
2019-05-20T09:38:19.925Z,64
2019-05-20T09:39:14.612Z,65
2019-05-20T09:40:15.654Z,65
2019-05-20T09:41:14.801Z,66
2019-05-20T09:42:14.777Z,65
2019-05-20T09:43:14.850Z,66
2019-05-20T09:44:14.985Z,66
2019-05-20T09:45:14.970Z,68
2019-05-20T09:46:15.030Z,67
2019-05-20T09:47:15.049Z,65
2019-05-20T09:48:15.151Z,61
2019-05-20T09:49:15.198Z,62
2019-05-20T09:50:15.198Z,63
2019-05-20T09:51:15.295Z,63
2019-05-20T09:52:15.271Z,61
2019-05-20T09:53:15.343Z,63
2019-05-20T09:54:15.414Z,61
2019-05-20T09:55:15.557Z,59
2019-05-20T09:56:15.455Z,59
2019-05-20T09:57:15.460Z,59
2019-05-20T09:58:15.458Z,60
2019-05-20T09:59:16.390Z,62
2019-05-20T10:00:15.585Z,58
2019-05-20T10:01:16.650Z,58
2019-05-20T10:02:15.766Z,56
2019-05-20T10:03:15.747Z,57
2019-05-20T10:04:15.824Z,60
2019-05-20T10:05:15.852Z,60
2019-05-20T10:06:15.870Z,60
2019-05-20T10:07:15.958Z,59
2019-05-20T10:08:15.971Z,60
2019-05-20T10:09:16.029Z,59
2019-05-20T10:10:16.260Z,59
2019-05-20T10:11:16.161Z,60
2019-05-20T10:12:16.183Z,61
2019-05-20T10:13:16.214Z,60
2019-05-20T10:14:16.297Z,63
2019-05-20T10:15:16.318Z,64
2019-05-20T10:16:16.367Z,63
2019-05-20T10:17:16.492Z,63
2019-05-20T10:18:16.445Z,61
2019-05-20T10:19:16.532Z,61
2019-05-20T10:20:16.616Z,63
2019-05-20T10:21:16.616Z,62
2019-05-20T10:22:16.640Z,62
2019-05-20T10:23:16.698Z,65
2019-05-20T10:24:16.757Z,66
2019-05-20T10:25:16.789Z,61
2019-05-20T10:26:16.818Z,60
2019-05-20T10:27:16.882Z,59
2019-05-20T10:28:16.925Z,65
2019-05-20T10:29:17.004Z,66
2019-05-20T10:30:17.020Z,67
2019-05-20T10:31:17.024Z,67
2019-05-20T10:32:17.070Z,67
2019-05-20T10:33:17.074Z,67
2019-05-20T10:34:17.115Z,69
2019-05-20T10:35:17.174Z,67
2019-05-20T10:36:17.199Z,68
2019-05-20T10:37:17.278Z,68
2019-05-20T10:38:17.441Z,69
2019-05-20T10:39:17.299Z,68
2019-05-20T10:40:17.334Z,67
2019-05-20T10:41:17.359Z,69
2019-05-20T10:42:17.433Z,70
2019-05-20T10:43:17.488Z,69
2019-05-20T10:44:17.450Z,69
2019-05-20T10:45:17.497Z,70
2019-05-20T10:46:17.517Z,70
2019-05-20T10:47:17.584Z,70
2019-05-20T10:48:17.603Z,71
2019-05-20T10:49:17.664Z,72
2019-05-20T10:50:17.650Z,72
2019-05-20T10:51:17.677Z,73
2019-05-20T10:52:17.765Z,73
2019-05-20T10:53:17.762Z,71
2019-05-20T10:54:17.797Z,72
2019-05-20T10:55:17.828Z,72
2019-05-20T10:56:17.873Z,72
2019-05-20T10:57:17.908Z,72
2019-05-20T10:58:17.899Z,73
2019-05-20T10:59:17.955Z,73
2019-05-20T11:00:17.970Z,73
2019-05-20T11:01:18.021Z,73
2019-05-20T11:02:18.076Z,73
2019-05-20T11:03:18.075Z,71
2019-05-20T11:04:18.068Z,72
2019-05-20T11:05:18.111Z,73
2019-05-20T11:06:20.514Z,73
2019-05-20T11:07:18.185Z,72
2019-05-20T11:08:18.160Z,73
2019-05-20T11:09:18.209Z,74
2019-05-20T11:10:18.209Z,73
2019-05-20T11:11:18.225Z,74
2019-05-20T11:12:18.291Z,74
2019-05-20T11:13:18.266Z,72
2019-05-20T11:14:18.315Z,73
2019-05-20T11:15:18.302Z,73
2019-05-20T11:16:18.344Z,73
2019-05-20T11:17:18.364Z,74
2019-05-20T11:18:18.368Z,74
2019-05-20T11:19:18.374Z,74
2019-05-20T11:20:18.533Z,74
2019-05-20T11:21:18.428Z,76
2019-05-20T11:22:18.452Z,76
2019-05-20T11:23:18.439Z,76
2019-05-20T11:24:18.446Z,76
2019-05-20T11:25:18.485Z,77
2019-05-20T11:26:18.494Z,76
2019-05-20T11:27:18.546Z,77
2019-05-20T11:28:18.527Z,77
2019-05-20T11:29:18.528Z,79
2019-05-20T11:30:18.551Z,77
2019-05-20T11:31:18.575Z,77
2019-05-20T11:32:18.598Z,79
2019-05-20T11:33:18.581Z,79
2019-05-20T11:34:18.589Z,79
2019-05-20T11:35:18.604Z,79
2019-05-20T11:36:18.617Z,79
2019-05-20T11:37:18.670Z,79
2019-05-20T11:38:18.694Z,80
2019-05-20T11:39:31.973Z,80
2019-05-20T11:40:18.650Z,80
2019-05-20T11:41:18.670Z,82
2019-05-20T11:42:18.684Z,82
2019-05-20T11:43:18.677Z,82
2019-05-20T11:44:18.718Z,83
2019-05-20T11:45:18.700Z,84
2019-05-20T11:46:18.731Z,85
2019-05-20T11:47:18.702Z,85
2019-05-20T11:48:18.717Z,84
2019-05-20T11:49:18.739Z,83
2019-05-20T11:50:18.754Z,83
2019-05-20T11:51:18.750Z,83
2019-05-20T11:52:18.789Z,84
2019-05-20T11:53:18.822Z,84
2019-05-20T11:54:18.885Z,85
2019-05-20T11:55:18.991Z,85
2019-05-20T11:56:18.942Z,85
2019-05-20T11:57:19.057Z,86
2019-05-20T11:58:19.093Z,86
2019-05-20T11:59:19.144Z,87
2019-05-20T12:00:19.227Z,87
2019-05-20T12:01:19.241Z,87
2019-05-20T12:02:19.344Z,86
2019-05-20T12:03:19.380Z,86
2019-05-20T12:04:19.412Z,85
2019-05-20T12:05:19.469Z,84
2019-05-20T12:06:19.518Z,84
2019-05-20T12:07:19.614Z,83
2019-05-20T12:08:19.634Z,80
2019-05-20T12:09:19.775Z,80
2019-05-20T12:10:19.724Z,80
2019-05-20T12:11:19.758Z,79
2019-05-20T12:12:19.974Z,79
2019-05-20T12:13:22.350Z,80
2019-05-20T12:14:19.925Z,80
2019-05-20T12:15:20.013Z,80
2019-05-20T12:16:20.003Z,79
2019-05-20T12:17:20.010Z,80
2019-05-20T12:18:20.013Z,81
2019-05-20T12:19:20.083Z,80
2019-05-20T12:20:20.175Z,78
2019-05-20T12:21:20.159Z,77
2019-05-20T12:22:20.188Z,78
2019-05-20T12:23:20.214Z,78
2019-05-20T12:24:20.257Z,79
2019-05-20T12:25:20.316Z,79
2019-05-20T12:26:22.549Z,79
2019-05-20T12:27:20.397Z,78
2019-05-20T12:28:20.418Z,77
2019-05-20T12:29:20.458Z,78
2019-05-20T12:30:20.558Z,78
2019-05-20T12:31:20.511Z,79
2019-05-20T12:32:20.510Z,80
2019-05-20T12:33:20.606Z,79
2019-05-20T12:34:20.576Z,79
2019-05-20T12:35:20.564Z,79
2019-05-20T12:36:20.599Z,79
2019-05-20T12:37:20.656Z,80
2019-05-20T12:38:20.730Z,80
2019-05-20T12:39:20.724Z,79
2019-05-20T12:40:20.768Z,79
2019-05-20T12:41:20.815Z,80
2019-05-20T12:42:20.857Z,80
2019-05-20T12:43:20.888Z,79
2019-05-20T12:44:20.904Z,79
2019-05-20T12:45:20.959Z,77
2019-05-20T12:46:20.978Z,76
2019-05-20T12:47:21.016Z,78
2019-05-20T12:48:21.020Z,79
2019-05-20T12:49:21.151Z,79
2019-05-20T12:50:21.155Z,79
2019-05-20T12:51:21.129Z,79
2019-05-20T12:52:21.189Z,80
2019-05-20T12:53:21.185Z,80
2019-05-20T12:54:21.218Z,80
2019-05-20T12:55:21.327Z,80
2019-05-20T12:56:21.266Z,80
2019-05-20T12:57:21.294Z,80
2019-05-20T12:58:21.326Z,80
2019-05-20T12:59:21.354Z,78
2019-05-20T13:00:21.389Z,78
2019-05-20T13:01:21.416Z,78
2019-05-20T13:02:21.415Z,79
2019-05-20T13:03:21.460Z,78
2019-05-20T13:04:21.525Z,77
2019-05-20T13:05:21.539Z,76
2019-05-20T13:06:21.548Z,76
2019-05-20T13:07:21.536Z,77
2019-05-20T13:08:21.558Z,78
2019-05-20T13:09:21.561Z,78
2019-05-20T13:10:29.472Z,78
2019-05-20T13:11:21.589Z,78
2019-05-20T13:12:21.614Z,78
2019-05-20T13:13:21.629Z,78
2019-05-20T13:14:21.650Z,77
2019-05-20T13:15:21.690Z,77
2019-05-20T13:16:21.709Z,77
2019-05-20T13:17:21.748Z,78
2019-05-20T13:18:21.722Z,79
2019-05-20T13:19:21.730Z,80
2019-05-20T13:20:22.106Z,79
2019-05-20T13:21:21.762Z,80
2019-05-20T13:22:21.781Z,80
2019-05-20T13:23:21.755Z,81
2019-05-20T13:24:21.774Z,81
2019-05-20T13:25:21.777Z,79
2019-05-20T13:26:21.777Z,78
2019-05-20T13:27:21.850Z,80
2019-05-20T13:28:21.786Z,82
2019-05-20T13:29:21.816Z,82
2019-05-20T13:30:21.839Z,82
2019-05-20T13:31:21.911Z,82
2019-05-20T13:32:21.926Z,82
2019-05-20T13:33:22.040Z,82
2019-05-20T13:34:22.046Z,82
2019-05-20T13:35:22.069Z,82
2019-05-20T13:36:22.159Z,82
2019-05-20T13:37:22.220Z,81
2019-05-20T13:38:22.289Z,81
2019-05-20T13:39:22.357Z,81
2019-05-20T13:40:22.456Z,81
2019-05-20T13:41:22.410Z,82
2019-05-20T13:42:22.446Z,82
2019-05-20T13:43:23.618Z,83
2019-05-20T13:44:22.537Z,83
2019-05-20T13:45:22.568Z,84
2019-05-20T13:46:22.616Z,84
2019-05-20T13:47:22.693Z,84
2019-05-20T13:48:22.779Z,84
2019-05-20T13:49:22.848Z,84
2019-05-20T13:50:22.822Z,84
2019-05-20T13:51:22.797Z,84
2019-05-20T13:52:22.875Z,84
2019-05-20T13:53:22.975Z,84
2019-05-20T13:54:22.965Z,84
2019-05-20T13:55:23.032Z,85
2019-05-20T13:56:23.077Z,84
2019-05-20T13:57:23.130Z,84
2019-05-20T13:58:23.211Z,84
2019-05-20T13:59:23.218Z,84
2019-05-20T14:00:23.264Z,84
2019-05-20T14:01:23.327Z,84
2019-05-20T14:02:23.349Z,84
2019-05-20T14:03:23.354Z,84
2019-05-20T14:04:23.348Z,85
2019-05-20T14:05:23.439Z,84
2019-05-20T14:06:23.510Z,84
2019-05-20T14:07:23.489Z,84
2019-05-20T14:08:23.490Z,83
2019-05-20T14:09:23.507Z,82
2019-05-20T14:10:23.542Z,82
2019-05-20T14:11:34.046Z,81
2019-05-20T14:12:23.615Z,79
2019-05-20T14:13:23.660Z,77
2019-05-20T14:14:23.715Z,76
2019-05-20T14:15:23.780Z,78
2019-05-20T14:16:23.753Z,79